Horwich, United Kingdom
Current Conditions -  °F | °C
As of 12:50 PM on Wednesday 26 Nov 2014 (Local Time) from EGNO Reporting Station
Broken Clouds Broken Clouds  
Wind Chill: 46°   Ceiling: 3300
Heat Index: 46°   Visibility: 5mi
Dew Point: 45°   Wind: 2mph
Humidity: 93%   Direction: 20°NNE
Pressure: 29.88"   Gusts: NA
Location:  53.6°N, 2.55°W
Report Text: EGNO 261250Z 02002KT 8000 SCT022 BKN033 08/07 Q1012
Loading
Personal Weather Stations






























Interactive Weather Map New forecast layout! Learn more

10-Day Weather Forecast

Advertisements
Track Severe Weather on mobile